createdAt,value
2018-05-16T00:01:48.680Z,12.70
2018-05-16T00:04:14.615Z,12.60
2018-05-16T00:06:40.598Z,12.80
2018-05-16T00:09:06.602Z,12.90
2018-05-16T00:11:33.515Z,12.80
2018-05-16T00:13:59.502Z,12.80
2018-05-16T00:16:25.556Z,12.90
2018-05-16T00:18:51.578Z,12.80
2018-05-16T00:21:17.662Z,12.80
2018-05-16T00:23:43.711Z,12.80
2018-05-16T00:26:11.447Z,12.80
2018-05-16T00:28:37.585Z,12.80
2018-05-16T00:31:03.600Z,12.70
2018-05-16T00:33:29.675Z,12.70
2018-05-16T00:35:55.769Z,12.70
2018-05-16T00:38:21.833Z,12.70
2018-05-16T00:40:47.899Z,12.70
2018-05-16T00:43:13.923Z,12.60
2018-05-16T00:45:39.947Z,12.70
2018-05-16T00:48:05.987Z,12.70
2018-05-16T00:50:32.004Z,12.60
2018-05-16T00:52:58.065Z,12.60
2018-05-16T00:55:24.061Z,12.50
2018-05-16T00:57:50.833Z,12.50
2018-05-16T01:00:16.833Z,12.50
2018-05-16T01:02:43.575Z,12.50
2018-05-16T01:05:09.535Z,12.40
2018-05-16T01:07:36.310Z,12.50
2018-05-16T01:10:02.268Z,12.50
2018-05-16T01:12:28.205Z,12.60
2018-05-16T01:14:54.135Z,12.50
2018-05-16T01:17:20.103Z,12.50
2018-05-16T01:19:46.059Z,12.50
2018-05-16T01:22:12.154Z,12.50
2018-05-16T01:24:38.095Z,12.50
2018-05-16T01:27:04.197Z,12.50
2018-05-16T01:29:30.183Z,12.40
2018-05-16T01:31:56.234Z,12.40
2018-05-16T01:34:22.961Z,12.40
2018-05-16T01:36:49.069Z,12.30
2018-05-16T01:39:15.087Z,12.40
2018-05-16T01:41:41.201Z,12.50
2018-05-16T01:44:07.238Z,12.40
2018-05-16T01:46:33.455Z,12.40
2018-05-16T01:49:11.984Z,12.40
2018-05-16T01:51:38.018Z,12.40
2018-05-16T01:54:04.039Z,12.50
2018-05-16T01:56:30.059Z,12.50
2018-05-16T01:58:56.272Z,12.50
2018-05-16T02:01:22.296Z,12.50
2018-05-16T02:03:48.338Z,12.60
2018-05-16T02:06:14.366Z,12.60
2018-05-16T02:08:41.185Z,12.70
2018-05-16T02:11:07.226Z,12.60
2018-05-16T02:13:33.293Z,12.70
2018-05-16T02:15:59.373Z,12.80
2018-05-16T02:18:25.405Z,12.70
2018-05-16T02:20:51.466Z,12.80
2018-05-16T02:23:17.557Z,12.90
2018-05-16T02:25:43.578Z,12.90
2018-05-16T02:28:09.683Z,12.90
2018-05-16T02:30:35.730Z,12.90
2018-05-16T02:33:02.551Z,12.90
2018-05-16T02:35:28.599Z,12.90
2018-05-16T02:37:54.606Z,12.80
2018-05-16T02:40:20.638Z,12.80
2018-05-16T02:42:46.665Z,12.80
2018-05-16T02:45:12.981Z,12.70
2018-05-16T02:47:39.037Z,12.70
2018-05-16T02:50:05.051Z,12.80
2018-05-16T02:52:31.152Z,12.60
2018-05-16T02:54:57.178Z,12.70
2018-05-16T02:57:23.200Z,12.60
2018-05-16T02:59:49.229Z,12.50
2018-05-16T03:02:15.249Z,12.60
2018-05-16T03:04:41.279Z,12.50
2018-05-16T03:07:08.038Z,12.50
2018-05-16T03:09:34.138Z,12.50
2018-05-16T03:12:00.179Z,12.50
2018-05-16T03:14:26.201Z,12.50
2018-05-16T03:16:52.221Z,12.60
2018-05-16T03:19:18.292Z,12.50
2018-05-16T03:21:44.274Z,12.60
2018-05-16T03:24:10.290Z,12.60
2018-05-16T03:26:36.407Z,12.60
2018-05-16T03:29:02.397Z,12.50
2018-05-16T03:31:28.318Z,12.60
2018-05-16T03:33:54.270Z,12.70
2018-05-16T03:36:20.243Z,12.70
2018-05-16T03:38:46.178Z,12.70
2018-05-16T03:41:12.912Z,12.70
2018-05-16T03:43:38.842Z,12.70
2018-05-16T03:46:04.818Z,12.70
2018-05-16T03:48:30.762Z,12.80
2018-05-16T03:50:56.700Z,12.80
2018-05-16T03:53:22.646Z,12.90
2018-05-16T03:55:48.594Z,13.00
2018-05-16T03:58:27.105Z,12.90
2018-05-16T04:01:05.468Z,13.00
2018-05-16T04:03:43.930Z,13.00
2018-05-16T04:06:10.598Z,13.10
2018-05-16T04:08:36.539Z,13.10
2018-05-16T04:11:02.490Z,13.10
2018-05-16T04:13:28.450Z,13.10
2018-05-16T04:15:54.400Z,13.20
2018-05-16T04:18:20.359Z,13.20
2018-05-16T04:20:46.303Z,13.20
2018-05-16T04:23:12.243Z,13.30
2018-05-16T04:25:38.182Z,13.30
2018-05-16T04:28:04.241Z,13.30
2018-05-16T04:30:30.217Z,13.30
2018-05-16T04:32:56.973Z,13.40
2018-05-16T04:35:22.984Z,13.40
2018-05-16T04:37:48.893Z,13.50
2018-05-16T04:40:14.839Z,13.60
2018-05-16T04:42:40.783Z,13.70
2018-05-16T04:45:06.822Z,13.90
2018-05-16T04:47:32.777Z,14.00
2018-05-16T04:49:59.448Z,14.10
2018-05-16T04:52:25.438Z,14.10
2018-05-16T04:54:51.387Z,14.20
2018-05-16T04:57:17.349Z,14.20
2018-05-16T04:59:43.326Z,14.30
2018-05-16T05:02:09.274Z,14.30
2018-05-16T05:04:35.248Z,14.40
2018-05-16T05:07:01.190Z,14.20
2018-05-16T05:09:27.144Z,14.30
2018-05-16T05:11:53.130Z,14.40
2018-05-16T05:14:19.840Z,14.60
2018-05-16T05:16:45.836Z,14.60
2018-05-16T05:19:11.790Z,14.90
2018-05-16T05:21:37.751Z,15.10
2018-05-16T05:24:03.821Z,15.40
2018-05-16T05:26:30.240Z,15.40
2018-05-16T05:28:56.296Z,15.30
2018-05-16T05:31:22.258Z,15.20
2018-05-16T05:33:48.157Z,15.10
2018-05-16T05:36:14.097Z,15.30
2018-05-16T05:38:39.992Z,15.30
2018-05-16T05:41:05.915Z,15.50
2018-05-16T05:43:31.839Z,15.50
2018-05-16T05:45:57.745Z,15.50
2018-05-16T05:48:23.677Z,15.50
2018-05-16T05:50:49.573Z,15.40
2018-05-16T05:53:16.241Z,15.40
2018-05-16T05:55:42.484Z,15.40
2018-05-16T05:58:08.376Z,15.50
2018-05-16T06:00:34.281Z,15.70
2018-05-16T06:03:00.934Z,16.60
2018-05-16T06:05:26.910Z,16.50
2018-05-16T06:07:52.765Z,16.70
2018-05-16T06:10:19.424Z,16.40
2018-05-16T06:12:45.368Z,16.30
2018-05-16T06:15:11.254Z,16.70
2018-05-16T06:17:37.169Z,16.70
2018-05-16T06:20:03.067Z,16.90
2018-05-16T06:22:29.729Z,16.80
2018-05-16T06:24:55.676Z,16.80
2018-05-16T06:27:21.784Z,16.80
2018-05-16T06:29:47.526Z,16.90
2018-05-16T06:32:13.444Z,16.70
2018-05-16T06:34:39.349Z,16.30
2018-05-16T06:37:05.269Z,16.20
2018-05-16T06:39:31.212Z,16.30
2018-05-16T06:41:57.101Z,16.40
2018-05-16T06:44:23.016Z,16.40
2018-05-16T06:46:48.908Z,16.80
2018-05-16T06:49:14.825Z,16.90
2018-05-16T06:51:40.756Z,17.10
2018-05-16T06:54:07.514Z,17.80
2018-05-16T06:56:34.228Z,18.10
2018-05-16T06:59:00.891Z,18.40
2018-05-16T07:01:27.549Z,19.00
2018-05-16T07:03:53.485Z,19.00
2018-05-16T07:06:19.408Z,19.60
2018-05-16T07:08:45.320Z,20.40
2018-05-16T07:11:11.232Z,21.20
2018-05-16T07:13:37.238Z,20.80
2018-05-16T07:16:03.084Z,21.70
2018-05-16T07:18:28.981Z,22.50
2018-05-16T07:20:54.868Z,22.40
2018-05-16T07:23:20.765Z,22.00
2018-05-16T07:25:46.670Z,21.30
2018-05-16T07:28:12.612Z,21.50
2018-05-16T07:30:38.523Z,21.70
2018-05-16T07:33:08.372Z,22.30
2018-05-16T07:35:34.312Z,22.90
2018-05-16T07:38:00.972Z,24.20
2018-05-16T07:40:26.943Z,24.10
2018-05-16T07:42:52.824Z,25.50
2018-05-16T07:45:18.717Z,26.10
2018-05-16T07:47:44.637Z,26.60
2018-05-16T07:50:10.535Z,25.70
2018-05-16T07:52:36.450Z,26.30
2018-05-16T07:55:02.345Z,26.20
2018-05-16T07:57:28.237Z,26.20
2018-05-16T07:59:54.236Z,24.90
2018-05-16T08:02:20.884Z,24.80
2018-05-16T08:04:46.790Z,24.80
2018-05-16T08:07:13.415Z,27.00
2018-05-16T08:09:39.317Z,26.90
2018-05-16T08:12:05.419Z,28.40
2018-05-16T08:14:31.332Z,27.80
2018-05-16T08:16:57.273Z,26.50
2018-05-16T08:19:23.185Z,25.10
2018-05-16T08:21:49.145Z,24.10
2018-05-16T08:24:15.044Z,23.60
2018-05-16T08:26:41.701Z,23.00
2018-05-16T08:29:07.624Z,23.00
2018-05-16T08:31:33.525Z,23.30
2018-05-16T08:33:59.467Z,23.30
2018-05-16T08:36:25.400Z,23.90
2018-05-16T08:38:52.061Z,24.20
2018-05-16T08:41:17.960Z,24.10
2018-05-16T08:43:44.611Z,25.00
2018-05-16T08:46:10.513Z,25.00
2018-05-16T08:48:37.189Z,27.20
2018-05-16T08:51:03.076Z,27.20
2018-05-16T08:53:29.808Z,26.70
2018-05-16T08:55:55.661Z,26.70
2018-05-16T08:58:21.674Z,26.10
2018-05-16T09:00:47.603Z,26.00
2018-05-16T09:03:13.545Z,25.80
2018-05-16T09:05:39.469Z,25.70
2018-05-16T09:08:05.402Z,25.00
2018-05-16T09:10:31.292Z,25.40
2018-05-16T09:12:57.205Z,25.80
2018-05-16T09:15:23.125Z,26.00
2018-05-16T09:17:49.057Z,25.50
2018-05-16T09:20:14.981Z,25.70
2018-05-16T09:22:40.935Z,25.20
2018-05-16T09:25:06.956Z,25.10
2018-05-16T09:27:32.793Z,25.60
2018-05-16T09:29:58.711Z,25.80
2018-05-16T09:32:24.625Z,25.60
2018-05-16T09:34:50.543Z,25.50
2018-05-16T09:37:16.630Z,25.30
2018-05-16T09:39:42.723Z,24.90
2018-05-16T09:42:09.389Z,24.70
2018-05-16T09:44:35.321Z,24.70
2018-05-16T09:47:01.275Z,24.70
2018-05-16T09:49:27.188Z,25.00
2018-05-16T09:51:53.085Z,25.20
2018-05-16T09:54:19.006Z,25.60
2018-05-16T09:56:44.915Z,25.80
2018-05-16T09:59:10.804Z,26.00
2018-05-16T10:01:37.509Z,25.70
2018-05-16T10:04:03.400Z,25.60
2018-05-16T10:06:29.338Z,25.90
2018-05-16T10:08:55.643Z,26.10
2018-05-16T10:11:21.559Z,26.40
2018-05-16T10:13:47.461Z,26.60
2018-05-16T10:16:14.139Z,26.40
2018-05-16T10:18:40.002Z,26.40
2018-05-16T10:21:05.912Z,27.10
2018-05-16T10:23:31.812Z,27.80
2018-05-16T10:25:57.792Z,28.10
2018-05-16T10:28:24.441Z,28.20
2018-05-16T10:30:50.429Z,28.20
2018-05-16T10:33:16.521Z,29.00
2018-05-16T10:35:42.351Z,29.10
2018-05-16T10:38:08.301Z,28.30
2018-05-16T10:40:34.955Z,27.90
2018-05-16T10:43:01.617Z,27.00
2018-05-16T10:45:27.545Z,27.00
2018-05-16T10:47:53.445Z,26.40
2018-05-16T10:50:19.332Z,26.80
2018-05-16T10:52:45.239Z,26.40
2018-05-16T10:55:11.141Z,26.50
2018-05-16T10:57:37.792Z,27.10
2018-05-16T11:00:03.720Z,27.10
2018-05-16T11:02:29.651Z,27.10
2018-05-16T11:04:55.556Z,27.60
2018-05-16T11:07:21.465Z,28.60
2018-05-16T11:09:47.385Z,28.80
2018-05-16T11:12:13.305Z,29.10
2018-05-16T11:14:39.246Z,29.00
2018-05-16T11:17:05.152Z,27.40
2018-05-16T11:19:31.054Z,27.20
2018-05-16T11:21:57.026Z,27.60
2018-05-16T11:24:23.784Z,28.70
2018-05-16T11:26:50.405Z,29.00
2018-05-16T11:29:16.308Z,29.00
2018-05-16T11:31:42.206Z,30.30
2018-05-16T11:34:08.140Z,30.30
2018-05-16T11:36:34.164Z,29.60
2018-05-16T11:39:00.104Z,30.60
2018-05-16T11:41:26.083Z,30.20
2018-05-16T11:43:52.468Z,30.70
2018-05-16T11:46:19.210Z,30.10
2018-05-16T11:48:45.921Z,30.30
2018-05-16T11:51:12.533Z,30.70
2018-05-16T11:53:38.454Z,30.60
2018-05-16T11:56:04.386Z,31.10
2018-05-16T11:58:30.329Z,30.90
2018-05-16T12:00:56.220Z,30.20
2018-05-16T12:03:22.137Z,29.50
2018-05-16T12:05:48.071Z,29.10
2018-05-16T12:08:13.993Z,28.30
2018-05-16T12:10:39.934Z,27.30
2018-05-16T12:13:05.829Z,27.00
2018-05-16T12:15:31.775Z,27.10
2018-05-16T12:17:57.684Z,27.50
2018-05-16T12:20:24.344Z,29.00
2018-05-16T12:22:50.276Z,29.10
2018-05-16T12:25:16.919Z,29.30
2018-05-16T12:27:44.301Z,30.20
2018-05-16T12:30:10.210Z,30.20
2018-05-16T12:32:36.128Z,30.70
2018-05-16T12:35:02.073Z,29.20
2018-05-16T12:37:27.972Z,28.60
2018-05-16T12:39:53.876Z,28.10
2018-05-16T12:42:20.524Z,27.20
2018-05-16T12:44:47.192Z,26.80
2018-05-16T12:47:13.105Z,26.80
2018-05-16T12:49:39.000Z,28.00
2018-05-16T12:52:05.677Z,30.20
2018-05-16T12:54:31.630Z,30.20
2018-05-16T13:01:54.425Z,31.20
2018-05-16T13:04:20.323Z,31.50
2018-05-16T13:06:46.240Z,30.70
2018-05-16T13:26:26.460Z,30.70
2018-05-16T13:28:52.369Z,29.20
2018-05-16T13:31:19.087Z,30.70
2018-05-16T13:33:45.016Z,30.70
2018-05-16T13:36:11.781Z,30.60
2018-05-16T13:43:33.604Z,30.50
2018-05-16T13:45:59.496Z,30.40
2018-05-16T13:48:25.438Z,30.20
2018-05-16T13:50:51.434Z,29.20
2018-05-16T13:53:17.309Z,29.70
2018-05-16T13:55:44.004Z,29.90
2018-05-16T13:58:09.945Z,29.90
2018-05-16T14:00:35.919Z,29.80
2018-05-16T14:03:01.873Z,30.00
2018-05-16T14:05:27.784Z,30.10
2018-05-16T14:07:53.681Z,29.30
2018-05-16T14:10:19.588Z,29.50
2018-05-16T14:12:46.227Z,27.80
2018-05-16T14:15:12.260Z,27.80
2018-05-16T14:17:38.092Z,26.80
2018-05-16T14:20:04.017Z,26.50
2018-05-16T14:22:29.975Z,26.60
2018-05-16T14:24:55.879Z,26.30
2018-05-16T14:27:21.829Z,27.00
2018-05-16T14:29:47.772Z,27.30
2018-05-16T14:35:09.143Z,27.20
2018-05-16T14:37:35.061Z,27.20
2018-05-16T14:40:01.018Z,26.20
2018-05-16T14:42:26.960Z,26.10
2018-05-16T14:44:53.648Z,25.80
2018-05-16T14:47:19.565Z,25.80
2018-05-16T14:49:45.568Z,26.20
2018-05-16T14:52:11.594Z,26.40
2018-05-16T14:54:37.524Z,26.60
2018-05-16T14:57:03.476Z,26.40
2018-05-16T14:59:29.424Z,26.50
2018-05-16T15:01:56.052Z,25.90
2018-05-16T15:04:22.019Z,25.90
2018-05-16T15:06:48.101Z,25.70
2018-05-16T15:09:14.119Z,25.50
2018-05-16T15:11:40.051Z,25.80
2018-05-16T15:14:06.724Z,25.90
2018-05-16T15:16:32.652Z,25.90
2018-05-16T15:18:59.305Z,25.90
2018-05-16T15:21:25.256Z,25.90
2018-05-16T15:23:51.148Z,25.80
2018-05-16T15:26:17.133Z,25.20
2018-05-16T15:28:43.081Z,25.00
2018-05-16T15:31:09.008Z,24.90
2018-05-16T15:33:34.927Z,24.70
2018-05-16T15:36:00.864Z,24.90
2018-05-16T15:38:26.850Z,25.30
2018-05-16T15:40:52.773Z,25.60
2018-05-16T15:43:18.751Z,25.30
2018-05-16T15:45:44.661Z,24.90
2018-05-16T15:48:10.557Z,25.10
2018-05-16T15:50:36.470Z,25.00
2018-05-16T15:53:02.394Z,24.80
2018-05-16T15:55:28.300Z,24.30
2018-05-16T15:57:54.232Z,24.50
2018-05-16T16:00:20.172Z,24.10
2018-05-16T16:02:46.117Z,24.20
2018-05-16T16:05:12.853Z,23.50
2018-05-16T16:07:38.793Z,23.40
2018-05-16T16:10:05.452Z,23.50
2018-05-16T16:12:31.382Z,23.50
2018-05-16T16:14:57.309Z,23.40
2018-05-16T16:17:23.218Z,23.00
2018-05-16T16:19:49.116Z,23.00
2018-05-16T16:22:15.126Z,22.90
2018-05-16T16:24:41.026Z,23.10
2018-05-16T16:27:06.955Z,23.00
2018-05-16T16:29:32.868Z,22.80
2018-05-16T16:31:58.850Z,22.80
2018-05-16T16:34:24.814Z,23.00
2018-05-16T16:36:50.704Z,23.20
2018-05-16T16:39:16.692Z,23.30
2018-05-16T16:41:42.684Z,23.30
2018-05-16T16:44:08.669Z,23.10
2018-05-16T16:46:34.643Z,23.10
2018-05-16T16:49:00.540Z,23.10
2018-05-16T16:51:26.502Z,23.00
2018-05-16T16:53:53.176Z,22.90
2018-05-16T16:56:19.111Z,22.90
2018-05-16T16:58:45.108Z,22.90
2018-05-16T17:01:11.018Z,22.90
2018-05-16T17:03:36.905Z,22.80
2018-05-16T17:06:02.858Z,22.80
2018-05-16T17:08:29.498Z,22.30
2018-05-16T17:10:55.512Z,22.30
2018-05-16T17:13:21.420Z,22.30
2018-05-16T17:15:47.327Z,22.30
2018-05-16T17:18:13.322Z,22.40
2018-05-16T17:20:39.204Z,22.30
2018-05-16T17:23:05.861Z,22.00
2018-05-16T17:25:31.816Z,22.00
2018-05-16T17:27:57.736Z,21.80
2018-05-16T17:30:23.660Z,21.80
2018-05-16T17:32:50.173Z,21.70
2018-05-16T17:35:16.135Z,21.60
2018-05-16T17:37:42.100Z,21.40
2018-05-16T17:40:07.985Z,21.30
2018-05-16T17:42:34.699Z,21.30
2018-05-16T17:45:00.613Z,21.30
2018-05-16T17:47:26.533Z,21.30
2018-05-16T17:49:52.420Z,21.20
2018-05-16T17:52:18.328Z,21.20
2018-05-16T17:54:44.237Z,21.10
2018-05-16T17:57:10.899Z,21.00
2018-05-16T17:59:36.798Z,21.00
2018-05-16T18:02:02.753Z,20.90
2018-05-16T18:04:28.688Z,20.90
2018-05-16T18:06:54.591Z,20.90
2018-05-16T18:09:20.494Z,20.90
2018-05-16T18:11:46.419Z,20.90
2018-05-16T18:14:13.326Z,20.80
2018-05-16T18:16:52.585Z,20.60
2018-05-16T18:19:19.262Z,20.50
2018-05-16T18:21:45.219Z,20.50
2018-05-16T18:24:11.952Z,20.30
2018-05-16T18:26:37.922Z,20.30
2018-05-16T18:29:03.813Z,20.30
2018-05-16T18:31:30.537Z,20.30
2018-05-16T18:33:56.449Z,20.30
2018-05-16T18:36:22.388Z,20.20
2018-05-16T18:38:48.352Z,20.20
2018-05-16T18:41:21.215Z,20.20
2018-05-16T18:43:48.581Z,20.00
2018-05-16T18:46:14.504Z,19.90
2018-05-16T18:48:40.479Z,19.90
2018-05-16T18:51:06.408Z,19.80
2018-05-16T18:53:32.361Z,19.80
2018-05-16T18:55:58.405Z,19.80
2018-05-16T18:58:24.222Z,19.70
2018-05-16T19:00:50.119Z,19.60
2018-05-16T19:03:16.773Z,19.50
2018-05-16T19:05:42.753Z,19.50
2018-05-16T19:08:08.648Z,19.50
2018-05-16T19:10:34.603Z,19.50
2018-05-16T19:13:00.465Z,19.50
2018-05-16T19:15:26.424Z,19.50
2018-05-16T19:17:52.327Z,19.50
2018-05-16T19:20:18.272Z,19.40
2018-05-16T19:22:44.180Z,19.40
2018-05-16T19:25:10.072Z,19.40
2018-05-16T19:27:36.194Z,19.40
2018-05-16T19:30:02.592Z,19.30
2018-05-16T19:32:29.348Z,19.30
2018-05-16T19:34:55.291Z,19.30
2018-05-16T19:37:21.202Z,19.30
2018-05-16T19:39:47.112Z,19.20
2018-05-16T19:42:13.252Z,19.20
2018-05-16T19:44:39.176Z,19.20
2018-05-16T19:47:05.311Z,19.10
2018-05-16T19:49:31.316Z,19.10
2018-05-16T19:51:57.295Z,19.10
2018-05-16T19:54:24.160Z,18.90
2018-05-16T19:56:51.645Z,19.00
2018-05-16T19:59:17.585Z,18.90
2018-05-16T20:01:43.712Z,18.90
2018-05-16T20:04:09.728Z,18.90
2018-05-16T20:06:35.671Z,18.90
2018-05-16T20:09:01.697Z,18.80
2018-05-16T20:11:27.637Z,18.70
2018-05-16T20:13:53.724Z,18.70
2018-05-16T20:16:19.733Z,18.70
2018-05-16T20:18:45.728Z,18.70
2018-05-16T20:21:11.688Z,18.60
2018-05-16T20:23:37.668Z,18.70
2018-05-16T20:26:04.572Z,18.60
2018-05-16T20:28:31.621Z,18.50
2018-05-16T20:30:58.068Z,18.60
2018-05-16T20:33:24.026Z,18.50
2018-05-16T20:35:51.797Z,18.40
2018-05-16T20:38:18.788Z,18.40
2018-05-16T20:40:46.438Z,18.40
2018-05-16T20:43:14.875Z,18.40
2018-05-16T20:45:42.354Z,18.40
2018-05-16T20:48:08.851Z,18.30
2018-05-16T20:50:35.643Z,18.30
2018-05-16T20:53:02.233Z,18.20
2018-05-16T20:55:28.964Z,18.20
2018-05-16T20:57:55.023Z,18.20
2018-05-16T21:03:27.046Z,18.10
2018-05-16T21:05:55.842Z,18.00
2018-05-16T21:08:22.659Z,17.90
2018-05-16T21:10:49.459Z,17.80
2018-05-16T21:13:16.906Z,17.90
2018-05-16T21:15:43.992Z,17.80
2018-05-16T21:18:10.710Z,17.80
2018-05-16T21:20:37.111Z,17.90
2018-05-16T21:23:03.047Z,17.90
2018-05-16T21:25:29.726Z,17.90
2018-05-16T21:27:55.779Z,17.90
2018-05-16T21:30:21.720Z,17.80
2018-05-16T21:32:47.659Z,17.80
2018-05-16T21:35:14.379Z,17.80
2018-05-16T21:37:41.221Z,17.80
2018-05-16T21:40:07.891Z,17.90
2018-05-16T21:42:36.517Z,17.80
2018-05-16T21:45:03.315Z,17.80
2018-05-16T21:47:29.497Z,17.80
2018-05-16T21:49:56.161Z,17.70
2018-05-16T21:52:22.965Z,17.70
2018-05-16T21:54:48.876Z,17.70
2018-05-16T21:57:14.995Z,17.70
2018-05-16T21:59:40.944Z,17.70
2018-05-16T22:02:06.829Z,17.70
2018-05-16T22:04:32.736Z,17.70
2018-05-16T22:06:58.884Z,17.70
2018-05-16T22:09:24.781Z,17.70
2018-05-16T22:11:50.690Z,17.70
2018-05-16T22:14:17.311Z,17.60
2018-05-16T22:16:43.216Z,17.60
2018-05-16T22:19:09.139Z,17.60
2018-05-16T22:21:35.028Z,17.50
2018-05-16T22:24:00.939Z,17.50
2018-05-16T22:26:26.846Z,17.50
2018-05-16T22:28:52.772Z,17.50
2018-05-16T22:31:25.043Z,17.30
2018-05-16T22:33:57.155Z,17.30
2018-05-16T22:36:29.249Z,17.30
2018-05-16T22:39:02.162Z,17.20
2018-05-16T22:41:34.422Z,17.10
2018-05-16T22:44:06.413Z,17.10
2018-05-16T22:46:32.325Z,17.10
2018-05-16T22:48:58.361Z,17.10
2018-05-16T22:51:24.333Z,17.00
2018-05-16T22:53:50.988Z,17.10
2018-05-16T22:56:16.958Z,17.10
2018-05-16T22:58:42.877Z,17.10
2018-05-16T23:01:09.637Z,17.00
2018-05-16T23:03:35.550Z,16.90
2018-05-16T23:06:01.458Z,16.90
2018-05-16T23:08:27.442Z,16.90
2018-05-16T23:10:53.350Z,16.80
2018-05-16T23:13:19.257Z,16.70
2018-05-16T23:15:45.907Z,16.70
2018-05-16T23:18:12.572Z,16.70
2018-05-16T23:20:38.521Z,16.60
2018-05-16T23:23:04.469Z,16.60
2018-05-16T23:25:31.121Z,16.60
2018-05-16T23:27:57.839Z,16.60
2018-05-16T23:30:23.730Z,16.50
2018-05-16T23:32:49.685Z,16.50
2018-05-16T23:35:15.584Z,16.40
2018-05-16T23:37:41.473Z,16.40
2018-05-16T23:40:07.390Z,16.30
2018-05-16T23:42:33.291Z,16.20
2018-05-16T23:44:59.940Z,16.20
2018-05-16T23:47:25.839Z,16.20
2018-05-16T23:49:52.479Z,16.20
2018-05-16T23:52:19.138Z,16.30
2018-05-16T23:54:45.122Z,16.20
2018-05-16T23:57:11.483Z,16.30
2018-05-16T23:59:37.380Z,16.20
